createdAt,value
2023-04-04T00:01:35.572Z,13.80
2023-04-04T00:04:04.279Z,13.80
2023-04-04T00:06:32.985Z,13.80
2023-04-04T00:09:02.992Z,13.80
2023-04-04T00:11:31.690Z,13.80
2023-04-04T00:14:00.635Z,13.80
2023-04-04T00:16:29.273Z,13.80
2023-04-04T00:18:57.924Z,13.80
2023-04-04T00:21:27.555Z,13.80
2023-04-04T00:23:56.257Z,13.80
2023-04-04T00:26:27.499Z,13.80
2023-04-04T00:28:56.270Z,13.80
2023-04-04T00:31:25.064Z,13.80
2023-04-04T00:33:53.714Z,13.80
2023-04-04T00:36:22.433Z,13.80
2023-04-04T00:38:51.164Z,13.80
2023-04-04T00:41:19.973Z,13.80
2023-04-04T00:43:50.978Z,13.70
2023-04-04T00:46:20.434Z,13.70
2023-04-04T00:48:49.763Z,13.70
2023-04-04T00:51:18.545Z,13.70
2023-04-04T00:53:49.154Z,13.70
2023-04-04T00:56:18.143Z,13.70
2023-04-04T00:58:49.217Z,13.70
2023-04-04T01:01:18.304Z,13.60
2023-04-04T01:03:47.366Z,13.60
2023-04-04T01:06:17.006Z,13.60
2023-04-04T01:08:47.193Z,13.60
2023-04-04T01:11:16.902Z,13.60
2023-04-04T01:13:46.276Z,13.60
2023-04-04T01:16:18.687Z,13.60
2023-04-04T01:18:48.433Z,13.50
2023-04-04T01:21:21.874Z,13.50
2023-04-04T01:24:00.322Z,13.50
2023-04-04T01:26:37.883Z,13.50
2023-04-04T01:29:06.862Z,13.50
2023-04-04T01:31:41.819Z,13.50
2023-04-04T01:34:17.888Z,13.50
2023-04-04T01:36:57.745Z,13.50
2023-04-04T01:39:33.268Z,13.50
2023-04-04T01:42:04.985Z,13.50
2023-04-04T01:44:34.130Z,13.50
2023-04-04T01:47:04.218Z,13.50
2023-04-04T01:49:32.904Z,13.50
2023-04-04T01:52:02.299Z,13.40
2023-04-04T01:54:33.266Z,13.40
2023-04-04T01:57:03.246Z,13.40
2023-04-04T01:59:32.182Z,13.40
2023-04-04T02:02:01.149Z,13.40
2023-04-04T02:04:30.482Z,13.40
2023-04-04T02:06:59.251Z,13.40
2023-04-04T02:09:28.339Z,13.40
2023-04-04T02:11:58.289Z,13.40
2023-04-04T02:14:28.763Z,13.40
2023-04-04T02:16:58.586Z,13.40
2023-04-04T02:19:27.438Z,13.40
2023-04-04T02:21:56.645Z,13.40
2023-04-04T02:24:25.310Z,13.40
2023-04-04T02:26:53.964Z,13.40
2023-04-04T02:29:22.996Z,13.40
2023-04-04T02:31:54.075Z,13.30
2023-04-04T02:34:23.077Z,13.30
2023-04-04T02:36:53.985Z,13.30
2023-04-04T02:39:24.146Z,13.30
2023-04-04T02:41:52.970Z,13.30
2023-04-04T02:44:22.285Z,13.30
2023-04-04T02:46:53.979Z,13.30
2023-04-04T02:49:29.744Z,13.30
2023-04-04T02:51:59.445Z,13.30
2023-04-04T02:54:33.304Z,13.30
2023-04-04T02:57:02.490Z,13.30
2023-04-04T02:59:31.283Z,13.20
2023-04-04T03:02:01.444Z,13.20
2023-04-04T03:04:31.283Z,13.20
2023-04-04T03:06:59.930Z,13.20
2023-04-04T03:09:28.629Z,13.20
2023-04-04T03:11:57.851Z,13.10
2023-04-04T03:14:27.413Z,13.10
2023-04-04T03:16:58.366Z,13.10
2023-04-04T03:19:28.604Z,13.10
2023-04-04T03:21:57.476Z,13.10
2023-04-04T03:24:26.682Z,13.10
2023-04-04T03:26:55.308Z,13.10
2023-04-04T03:29:24.081Z,13.10
2023-04-04T03:31:53.294Z,13.10
2023-04-04T03:34:24.796Z,13.10
2023-04-04T03:36:55.087Z,13.10
2023-04-04T03:39:23.789Z,13.10
2023-04-04T03:41:52.577Z,13.10
2023-04-04T03:44:21.635Z,13.10
2023-04-04T03:46:50.597Z,13.00
2023-04-04T03:49:19.861Z,13.00
2023-04-04T03:51:48.809Z,13.00
2023-04-04T03:54:19.059Z,13.00
2023-04-04T03:56:48.139Z,13.00
2023-04-04T03:59:16.952Z,13.00
2023-04-04T04:01:45.667Z,12.90
2023-04-04T04:04:14.369Z,13.00
2023-04-04T04:06:43.991Z,12.90
2023-04-04T04:09:12.828Z,12.90
2023-04-04T04:11:43.072Z,12.90
2023-04-04T04:14:11.676Z,12.90
2023-04-04T04:16:41.269Z,12.90
2023-04-04T04:19:11.063Z,12.90
2023-04-04T04:21:43.962Z,12.90
2023-04-04T04:24:12.794Z,12.90
2023-04-04T04:26:43.004Z,12.80
2023-04-04T04:29:12.445Z,12.80
2023-04-04T04:31:41.807Z,12.80
2023-04-04T04:34:11.002Z,12.80
2023-04-04T04:36:41.728Z,12.80
2023-04-04T04:39:27.318Z,12.80
2023-04-04T04:42:21.424Z,12.80
2023-04-04T04:44:56.049Z,12.80
2023-04-04T04:47:25.417Z,12.80
2023-04-04T04:49:54.779Z,12.70
2023-04-04T04:52:33.904Z,12.70
2023-04-04T04:55:03.110Z,12.70
2023-04-04T04:57:34.399Z,12.70
2023-04-04T05:00:10.116Z,12.70
2023-04-04T05:02:38.997Z,12.70
2023-04-04T05:05:09.206Z,12.70
2023-04-04T05:07:38.605Z,12.70
2023-04-04T05:10:09.420Z,12.70
2023-04-04T05:12:44.815Z,12.70
2023-04-04T05:15:19.120Z,12.70
2023-04-04T05:17:52.614Z,12.70
2023-04-04T05:20:21.781Z,12.70
2023-04-04T05:22:51.759Z,12.70
2023-04-04T05:25:28.275Z,12.70
2023-04-04T05:27:58.725Z,12.60
2023-04-04T05:30:28.951Z,12.60
2023-04-04T05:33:10.898Z,12.60
2023-04-04T05:35:43.237Z,12.60
2023-04-04T05:38:11.980Z,12.60
2023-04-04T05:40:41.130Z,12.60
2023-04-04T05:43:15.469Z,12.60
2023-04-04T05:45:59.139Z,12.60
2023-04-04T05:48:29.628Z,12.60
2023-04-04T05:50:58.290Z,12.60
2023-04-04T05:53:39.651Z,12.60
2023-04-04T05:56:08.559Z,12.60
2023-04-04T05:58:38.842Z,12.60
2023-04-04T06:01:08.896Z,12.60
2023-04-04T06:03:38.493Z,12.60
2023-04-04T06:06:11.805Z,12.60
2023-04-04T06:08:52.996Z,12.70
2023-04-04T06:11:23.049Z,12.70
2023-04-04T06:13:55.181Z,12.70
2023-04-04T06:16:24.682Z,12.70
2023-04-04T06:18:53.425Z,12.70
2023-04-04T06:21:22.123Z,12.80
2023-04-04T06:23:51.231Z,12.80
2023-04-04T06:26:20.634Z,12.80
2023-04-04T06:28:50.686Z,12.80
2023-04-04T06:31:41.126Z,12.90
2023-04-04T06:34:19.211Z,12.90
2023-04-04T06:36:54.622Z,12.90
2023-04-04T06:39:25.977Z,13.00
2023-04-04T06:41:56.296Z,13.00
2023-04-04T06:44:29.145Z,13.00
2023-04-04T06:46:59.545Z,13.00
2023-04-04T06:49:28.362Z,13.10
2023-04-04T06:51:57.125Z,13.10
2023-04-04T06:54:26.924Z,13.10
2023-04-04T06:56:55.896Z,13.20
2023-04-04T06:59:24.597Z,13.20
2023-04-04T07:01:53.399Z,13.20
2023-04-04T07:04:23.512Z,13.20
2023-04-04T07:06:52.373Z,13.30
2023-04-04T07:09:28.788Z,13.30
2023-04-04T07:11:58.415Z,13.30
2023-04-04T07:14:27.001Z,13.30
2023-04-04T07:16:56.040Z,13.30
2023-04-04T07:19:28.813Z,13.40
2023-04-04T07:21:57.890Z,13.40
2023-04-04T07:24:26.551Z,13.40
2023-04-04T07:26:55.150Z,13.40
2023-04-04T07:29:24.061Z,13.40
2023-04-04T07:31:52.795Z,13.40
2023-04-04T07:34:21.457Z,13.40
2023-04-04T07:36:51.547Z,13.40
2023-04-04T07:39:20.198Z,13.40
2023-04-04T07:41:48.855Z,13.50
2023-04-04T07:44:17.452Z,13.50
2023-04-04T07:46:49.913Z,13.50
2023-04-04T07:49:24.730Z,13.50
2023-04-04T07:51:55.774Z,13.60
2023-04-04T07:54:24.850Z,13.60
2023-04-04T07:56:53.552Z,13.60
2023-04-04T07:59:22.243Z,13.70
2023-04-04T08:01:50.869Z,13.70
2023-04-04T08:04:19.793Z,13.80
2023-04-04T08:06:48.830Z,13.80
2023-04-04T08:09:18.903Z,13.80
2023-04-04T08:11:47.621Z,13.80
2023-04-04T08:14:16.662Z,13.90
2023-04-04T08:16:45.291Z,13.90
2023-04-04T08:19:13.849Z,13.90
2023-04-04T08:21:42.963Z,13.90
2023-04-04T08:24:12.651Z,13.90
2023-04-04T08:26:46.935Z,13.90
2023-04-04T08:29:17.813Z,13.90
2023-04-04T08:31:46.646Z,13.90
2023-04-04T08:34:15.272Z,13.90
2023-04-04T08:36:43.914Z,13.90
2023-04-04T08:39:12.654Z,13.90
2023-04-04T08:41:45.037Z,13.90
2023-04-04T08:44:20.478Z,13.90
2023-04-04T08:46:50.782Z,13.90
2023-04-04T08:49:22.332Z,13.90
2023-04-04T08:51:52.999Z,13.90
2023-04-04T08:54:22.694Z,14.00
2023-04-04T08:56:53.157Z,14.00
2023-04-04T08:59:23.202Z,14.00
2023-04-04T09:02:01.674Z,14.00
2023-04-04T09:04:31.297Z,14.00
2023-04-04T09:07:03.520Z,14.10
2023-04-04T09:09:33.540Z,14.10
2023-04-04T09:12:04.930Z,14.20
2023-04-04T09:14:34.988Z,14.30
2023-04-04T09:17:04.027Z,14.40
2023-04-04T09:19:32.928Z,14.50
2023-04-04T09:22:11.156Z,14.60
2023-04-04T09:24:41.245Z,14.80
2023-04-04T09:27:13.146Z,14.90
2023-04-04T09:29:43.183Z,15.10
2023-04-04T09:32:16.344Z,15.30
2023-04-04T09:34:46.140Z,15.60
2023-04-04T09:37:16.556Z,15.90
2023-04-04T09:39:45.770Z,16.10
2023-04-04T09:42:17.143Z,16.40
2023-04-04T09:44:46.067Z,16.70
2023-04-04T09:47:31.059Z,17.00
2023-04-04T09:50:01.426Z,17.20
2023-04-04T09:52:35.768Z,17.40
2023-04-04T09:55:06.944Z,17.60
2023-04-04T09:57:37.917Z,17.80
2023-04-04T10:00:09.754Z,18.00
2023-04-04T10:02:41.235Z,18.10
2023-04-04T10:05:12.127Z,18.20
2023-04-04T10:07:42.410Z,18.20
2023-04-04T10:10:11.829Z,18.20
2023-04-04T10:12:41.799Z,18.20
2023-04-04T10:15:11.465Z,18.20
2023-04-04T10:17:42.489Z,18.20
2023-04-04T10:20:12.962Z,18.20
2023-04-04T10:22:42.523Z,18.20
2023-04-04T10:25:12.485Z,18.20
2023-04-04T10:27:42.571Z,18.20
2023-04-04T10:30:12.962Z,18.30
2023-04-04T10:32:52.299Z,18.30
2023-04-04T10:35:23.836Z,18.30
2023-04-04T10:37:59.620Z,18.30
2023-04-04T10:40:34.635Z,18.30
2023-04-04T10:43:06.823Z,18.30
2023-04-04T10:45:38.732Z,18.20
2023-04-04T10:48:10.633Z,18.10
2023-04-04T10:50:40.454Z,18.10
2023-04-04T10:53:10.587Z,17.90
2023-04-04T10:55:41.392Z,17.80
2023-04-04T10:58:12.345Z,17.70
2023-04-04T11:00:52.447Z,17.60
2023-04-04T11:03:21.132Z,17.50
2023-04-04T11:05:51.638Z,17.40
2023-04-04T11:08:25.047Z,17.30
2023-04-04T11:10:55.562Z,17.20
2023-04-04T11:13:33.537Z,17.10
2023-04-04T11:16:07.693Z,17.00
2023-04-04T11:18:49.946Z,16.90
2023-04-04T11:21:23.713Z,16.80
2023-04-04T11:24:19.352Z,16.80
2023-04-04T11:26:48.560Z,16.70
2023-04-04T11:29:54.121Z,16.60
2023-04-04T11:32:50.023Z,16.50
2023-04-04T11:35:25.082Z,16.50
2023-04-04T11:38:03.811Z,16.40
2023-04-04T11:40:43.525Z,16.30
2023-04-04T11:43:13.527Z,16.30
2023-04-04T11:45:52.403Z,16.20
2023-04-04T11:48:21.870Z,16.20
2023-04-04T11:50:51.340Z,16.20
2023-04-04T11:53:20.773Z,16.10
2023-04-04T11:55:53.066Z,16.10
2023-04-04T11:58:21.726Z,16.10
2023-04-04T12:00:51.822Z,16.00
2023-04-04T12:03:20.799Z,16.00
2023-04-04T12:05:51.102Z,16.00
2023-04-04T12:08:20.261Z,15.90
2023-04-04T12:10:49.022Z,15.90
2023-04-04T12:13:17.695Z,15.90
2023-04-04T12:15:49.409Z,15.90
2023-04-04T12:18:24.675Z,15.90
2023-04-04T12:20:53.529Z,15.80
2023-04-04T12:23:23.537Z,15.80
2023-04-04T12:25:54.985Z,15.80
2023-04-04T12:28:24.883Z,15.80
2023-04-04T12:30:54.582Z,15.70
2023-04-04T12:33:24.725Z,15.70
2023-04-04T12:35:54.875Z,15.70
2023-04-04T12:38:23.643Z,15.70
2023-04-04T12:40:53.681Z,15.70
2023-04-04T12:43:22.355Z,15.70
2023-04-04T12:45:52.850Z,15.60
2023-04-04T12:48:30.032Z,15.60
2023-04-04T12:51:00.670Z,15.60
2023-04-04T12:53:30.662Z,15.60
2023-04-04T12:56:05.000Z,15.60
2023-04-04T12:58:35.937Z,15.60
2023-04-04T13:01:07.068Z,15.60
2023-04-04T13:03:38.079Z,15.60
2023-04-04T13:06:14.030Z,15.60
2023-04-04T13:08:52.099Z,15.60
2023-04-04T13:11:20.905Z,15.60
2023-04-04T13:13:50.504Z,15.60
2023-04-04T13:16:33.160Z,15.60
2023-04-04T13:19:03.672Z,15.60
2023-04-04T13:21:32.643Z,15.60
2023-04-04T13:24:04.063Z,15.70
2023-04-04T13:26:32.775Z,15.70
2023-04-04T13:29:01.401Z,15.70
2023-04-04T13:31:30.155Z,15.70
2023-04-04T13:33:58.767Z,15.70
2023-04-04T13:36:29.392Z,15.70
2023-04-04T13:38:58.241Z,15.70
2023-04-04T13:41:26.914Z,15.70
2023-04-04T13:43:56.641Z,15.70
2023-04-04T13:46:25.392Z,15.70
2023-04-04T13:48:54.058Z,15.70
2023-04-04T13:51:24.473Z,15.70
2023-04-04T13:53:54.850Z,15.70
2023-04-04T13:56:23.862Z,15.70
2023-04-04T13:58:54.920Z,15.70
2023-04-04T14:01:23.769Z,15.70
2023-04-04T14:03:52.632Z,15.70
2023-04-04T14:06:21.535Z,15.70
2023-04-04T14:08:50.569Z,15.70
2023-04-04T14:11:21.839Z,15.70
2023-04-04T14:13:52.158Z,15.70
2023-04-04T14:16:21.982Z,15.70
2023-04-04T14:18:50.812Z,15.70
2023-04-04T14:21:19.847Z,15.70
2023-04-04T14:23:48.664Z,15.70
2023-04-04T14:26:17.406Z,15.70
2023-04-04T14:28:47.455Z,15.70
2023-04-04T14:31:16.114Z,15.70
2023-04-04T14:33:44.747Z,15.70
2023-04-04T14:36:13.406Z,15.80
2023-04-04T14:38:42.101Z,15.80
2023-04-04T14:41:10.745Z,15.80
2023-04-04T14:43:39.542Z,15.80
2023-04-04T14:46:09.509Z,15.80
2023-04-04T14:48:38.757Z,15.80
2023-04-04T14:51:07.516Z,15.80
2023-04-04T14:53:36.675Z,15.80
2023-04-04T14:56:05.710Z,15.80
2023-04-04T14:58:34.346Z,15.80
2023-04-04T15:01:03.669Z,15.80
2023-04-04T15:03:34.845Z,15.80
2023-04-04T15:06:03.624Z,15.80
2023-04-04T15:08:32.297Z,15.80
2023-04-04T15:11:02.759Z,15.80
2023-04-04T15:13:32.376Z,15.80
2023-04-04T15:16:01.680Z,15.80
2023-04-04T15:18:30.457Z,15.80
2023-04-04T15:21:00.693Z,15.80
2023-04-04T15:23:29.326Z,15.80
2023-04-04T15:25:58.015Z,15.80
2023-04-04T15:28:27.208Z,15.80
2023-04-04T15:30:56.613Z,15.80
2023-04-04T15:33:25.295Z,15.80
2023-04-04T15:35:53.944Z,15.80
2023-04-04T15:38:24.106Z,15.80
2023-04-04T15:40:52.825Z,15.80
2023-04-04T15:43:21.409Z,15.80
2023-04-04T15:45:50.012Z,15.80
2023-04-04T15:48:18.766Z,15.80
2023-04-04T15:50:47.395Z,15.80
2023-04-04T15:53:16.036Z,15.80
2023-04-04T15:55:46.117Z,15.80
2023-04-04T15:58:14.699Z,15.80
2023-04-04T16:00:47.520Z,15.80
2023-04-04T16:03:16.428Z,15.80
2023-04-04T16:05:45.549Z,15.80
2023-04-04T16:08:14.971Z,15.80
2023-04-04T16:10:45.095Z,15.80
2023-04-04T16:13:15.330Z,15.80
2023-04-04T16:15:44.002Z,15.80
2023-04-04T16:18:12.722Z,15.70
2023-04-04T16:20:41.690Z,15.70
2023-04-04T16:23:10.557Z,15.70
2023-04-04T16:25:39.141Z,15.80
2023-04-04T16:28:09.129Z,15.80
2023-04-04T16:30:37.878Z,15.70
2023-04-04T16:33:06.903Z,15.80
2023-04-04T16:35:37.411Z,15.70
2023-04-04T16:38:06.377Z,15.70
2023-04-04T16:40:35.638Z,15.80
2023-04-04T16:43:04.290Z,15.80
2023-04-04T16:45:34.423Z,15.80
2023-04-04T16:48:03.216Z,15.80
2023-04-04T16:50:31.947Z,15.80
2023-04-04T16:53:01.263Z,15.80
2023-04-04T16:55:30.084Z,15.80
2023-04-04T16:57:58.721Z,15.80
2023-04-04T17:00:27.545Z,15.80
2023-04-04T17:02:58.245Z,15.70
2023-04-04T17:05:27.395Z,15.70
2023-04-04T17:07:56.058Z,15.70
2023-04-04T17:10:24.773Z,15.70
2023-04-04T17:12:53.343Z,15.60
2023-04-04T17:15:22.046Z,15.60
2023-04-04T17:17:50.749Z,15.60
2023-04-04T17:20:21.078Z,15.60
2023-04-04T17:22:51.605Z,15.60
2023-04-04T17:25:22.490Z,15.50
2023-04-04T17:27:51.203Z,15.50
2023-04-04T17:30:19.957Z,15.50
2023-04-04T17:32:48.989Z,15.50
2023-04-04T17:35:18.062Z,15.50
2023-04-04T17:37:48.116Z,15.40
2023-04-04T17:40:17.048Z,15.40
2023-04-04T17:42:46.087Z,15.40
2023-04-04T17:45:15.123Z,15.40
2023-04-04T17:47:44.883Z,15.30
2023-04-04T17:50:13.631Z,15.30
2023-04-04T17:52:42.436Z,15.30
2023-04-04T17:55:12.915Z,15.30
2023-04-04T17:57:44.925Z,15.30
2023-04-04T18:00:16.076Z,15.20
2023-04-04T18:02:44.984Z,15.20
2023-04-04T18:05:14.846Z,15.20
2023-04-04T18:07:43.463Z,15.20
2023-04-04T18:10:13.576Z,15.20
2023-04-04T18:12:44.423Z,15.10
2023-04-04T18:15:13.941Z,15.10
2023-04-04T18:17:42.975Z,15.10
2023-04-04T18:20:18.534Z,15.10
2023-04-04T18:22:53.844Z,15.10
2023-04-04T18:25:24.061Z,15.10
2023-04-04T18:27:52.649Z,15.10
2023-04-04T18:30:22.000Z,15.00
2023-04-04T18:32:51.818Z,15.00
2023-04-04T18:35:20.711Z,15.00
2023-04-04T18:37:49.390Z,15.00
2023-04-04T18:40:18.239Z,15.00
2023-04-04T18:42:50.150Z,14.90
2023-04-04T18:45:20.893Z,14.90
2023-04-04T18:47:50.009Z,14.90
2023-04-04T18:50:18.896Z,14.80
2023-04-04T18:52:47.511Z,14.80
2023-04-04T18:55:16.355Z,14.80
2023-04-04T18:57:48.453Z,14.80
2023-04-04T19:00:19.201Z,14.80
2023-04-04T19:02:48.404Z,14.80
2023-04-04T19:05:24.770Z,14.80
2023-04-04T19:07:54.781Z,14.80
2023-04-04T19:10:24.233Z,14.80
2023-04-04T19:12:52.870Z,14.80
2023-04-04T19:15:23.239Z,14.80
2023-04-04T19:17:51.920Z,14.80
2023-04-04T19:20:21.030Z,14.80
2023-04-04T19:22:49.670Z,14.80
2023-04-04T19:25:18.906Z,14.80
2023-04-04T19:27:47.562Z,14.80
2023-04-04T19:30:47.356Z,14.80
2023-04-04T19:33:18.305Z,14.80
2023-04-04T19:35:53.816Z,14.80
2023-04-04T19:38:26.479Z,14.80
2023-04-04T19:40:59.053Z,14.80
2023-04-04T19:43:30.132Z,14.80
2023-04-04T19:46:08.380Z,14.80
2023-04-04T19:48:44.167Z,14.80
2023-04-04T19:51:35.776Z,14.80
2023-04-04T19:54:07.191Z,14.80
2023-04-04T19:56:37.328Z,14.80
2023-04-04T19:59:10.500Z,14.80
2023-04-04T20:01:47.319Z,14.80
2023-04-04T20:04:22.845Z,14.80
2023-04-04T20:06:51.514Z,14.80
2023-04-04T20:09:34.948Z,14.80
2023-04-04T20:12:03.639Z,14.80
2023-04-04T20:14:32.318Z,14.80
2023-04-04T20:17:02.332Z,14.80
2023-04-04T20:19:31.106Z,14.80
2023-04-04T20:22:00.319Z,14.80
2023-04-04T20:24:30.242Z,14.80
2023-04-04T20:26:59.750Z,14.70
2023-04-04T20:29:31.478Z,14.70
2023-04-04T20:32:03.575Z,14.70
2023-04-04T20:34:44.708Z,14.70
2023-04-04T20:37:16.252Z,14.70
2023-04-04T20:39:50.382Z,14.70
2023-04-04T20:42:32.410Z,14.70
2023-04-04T20:45:08.385Z,14.70
2023-04-04T20:47:46.329Z,14.70
2023-04-04T20:50:43.556Z,14.70
2023-04-04T20:53:19.791Z,14.60
2023-04-04T20:55:50.573Z,14.60
2023-04-04T20:58:29.341Z,14.60
2023-04-04T21:01:00.008Z,14.60
2023-04-04T21:03:38.169Z,14.60
2023-04-04T21:06:15.625Z,14.60
2023-04-04T21:08:49.581Z,14.50
2023-04-04T21:11:27.301Z,14.50
2023-04-04T21:13:56.637Z,14.50
2023-04-04T21:16:29.466Z,14.50
2023-04-04T21:19:01.826Z,14.50
2023-04-04T21:21:31.306Z,14.50
2023-04-04T21:24:01.058Z,14.50
2023-04-04T21:26:33.253Z,14.50
2023-04-04T21:29:04.789Z,14.40
2023-04-04T21:31:40.939Z,14.40
2023-04-04T21:34:16.334Z,14.40
2023-04-04T21:36:45.950Z,14.40
2023-04-04T21:39:16.708Z,14.40
2023-04-04T21:41:45.980Z,14.40
2023-04-04T21:44:14.931Z,14.30
2023-04-04T21:46:43.727Z,14.30
2023-04-04T21:49:13.960Z,14.30
2023-04-04T21:51:43.466Z,14.30
2023-04-04T21:54:12.165Z,14.30
2023-04-04T21:56:40.764Z,14.30
2023-04-04T21:59:11.271Z,14.30
2023-04-04T22:01:41.026Z,14.30
2023-04-04T22:04:09.885Z,14.20
2023-04-04T22:06:40.032Z,14.20
2023-04-04T22:09:08.692Z,14.20
2023-04-04T22:11:45.227Z,14.20
2023-04-04T22:14:18.207Z,14.20
2023-04-04T22:16:47.154Z,14.20
2023-04-04T22:19:15.918Z,14.20
2023-04-04T22:21:48.653Z,14.20
2023-04-04T22:24:18.443Z,14.20
2023-04-04T22:26:47.633Z,14.20
2023-04-04T22:29:16.387Z,14.20
2023-04-04T22:31:45.090Z,14.20
2023-04-04T22:34:15.133Z,14.20
2023-04-04T22:36:45.642Z,14.30
2023-04-04T22:39:15.987Z,14.30
2023-04-04T22:41:45.624Z,14.30
2023-04-04T22:44:14.284Z,14.20
2023-04-04T22:46:43.035Z,14.30
2023-04-04T22:49:13.471Z,14.30
2023-04-04T22:51:45.776Z,14.30
2023-04-04T22:54:17.148Z,14.20
2023-04-04T22:56:46.521Z,14.20
2023-04-04T22:59:15.465Z,14.20
2023-04-04T23:01:44.406Z,14.20
2023-04-04T23:04:13.284Z,14.20
2023-04-04T23:06:43.101Z,14.20
2023-04-04T23:09:11.730Z,14.10
2023-04-04T23:11:42.518Z,14.10
2023-04-04T23:14:14.995Z,14.10
2023-04-04T23:16:44.007Z,14.10
2023-04-04T23:19:13.265Z,14.10
2023-04-04T23:21:42.043Z,14.10
2023-04-04T23:24:10.706Z,14.00
2023-04-04T23:26:39.272Z,14.00
2023-04-04T23:29:09.887Z,14.00
2023-04-04T23:31:38.667Z,14.00
2023-04-04T23:34:07.322Z,14.00
2023-04-04T23:36:35.983Z,14.00
2023-04-04T23:39:04.854Z,14.00
2023-04-04T23:41:33.509Z,13.90
2023-04-04T23:44:02.199Z,13.90
2023-04-04T23:46:32.673Z,13.90
2023-04-04T23:49:01.864Z,13.90
2023-04-04T23:51:37.951Z,13.90
2023-04-04T23:54:07.257Z,13.90
2023-04-04T23:56:37.031Z,13.90
2023-04-04T23:59:06.355Z,13.90
